Terminal Aerodrome Forecast
Issued by NWS

Home | Current Version | Previous Version | Text Only | Print | Product List | Glossary On
Versions: 1 2 3 4 5 6 7 8 9 10 11 12 13 14 15
000
FTUS46 KPQR 220531
TAFONP
TAF
KONP 220531Z 2206/2306 VRB03KT P6SM FEW002 SCT025 SCT050
     FM221200 VRB03KT P6SM VCSH SCT025 BKN050
     FM222000 29006KT P6SM -SHRA SCT030 BKN050 BKN100=

USA.gov is the U.S. government's official web portal to all federal, state and local government web resources and services.